Time;durP1;ratioP1;P1;durP2;ratioP2;P2;SDS_P1;SDS_P2;PMS_P1;PMS_P2;Temp;Humidity;BMP_temperature;BMP_pressure;BME280_temperature;BME280_humidity;BME280_pressure;Samples;Min_cycle;Max_cycle;Signal;HPM_P1;HPM_P2
2022/08/03 00:01:28;;;;;;;;;;;;;;;;;;5054291;28;1586;-75
2022/08/03 00:03:53;;;;;;;;;;;;;;;;;;5054277;28;1677;-75
2022/08/03 00:06:18;;;;;;;;;;;;;;;;;;5058487;28;1486;-75
2022/08/03 00:08:44;;;;;;;;;;;;;;;;;;5057773;28;1965;-75
2022/08/03 00:11:09;;;;;;;;;;;;;;;;;;5046140;28;1179;-75
2022/08/03 00:13:34;;;;;;;;;;;;;;;;;;5050523;28;1934;-74
2022/08/03 00:15:59;;;;;;;;;;;;;;;;;;5044833;28;1579;-75
2022/08/03 00:18:25;;;;;;;;;;;;;;;;;;5061967;28;1199;-75
2022/08/03 00:20:50;;;;;;;;;;;;;;;;;;5062375;28;895;-75
2022/08/03 00:23:15;;;;;;;;;;;;;;;;;;5062379;28;871;-75
2022/08/03 00:25:40;;;;;;;;;;;;;;;;;;5044687;28;839;-75
2022/08/03 00:28:07;;;;;;;;;;;;;;;;;;5055503;28;2034;-75
2022/08/03 00:30:32;;;;;;;;;;;;;;;;;;5052276;28;1898;-75
2022/08/03 00:32:58;;;;;;;;;;;;;;;;;;5057306;28;1195;-75
2022/08/03 00:35:23;;;;;;;;;;;;;;;;;;5060703;28;810;-75
2022/08/03 00:37:49;;;;;;;;;;;;;;;;;;5060266;28;1220;-75
2022/08/03 00:40:15;;;;;;;;;;;;;;;;;;5061647;28;993;-75
2022/08/03 00:42:53;;;;;;;;;;;;;;;;;;5057039;28;1840;-76
2022/08/03 00:45:19;;;;;;;;;;;;;;;;;;5033195;28;1562;-74
2022/08/03 00:47:45;;;;;;;;;;;;;;;;;;5056799;28;1271;-72
2022/08/03 00:50:11;;;;;;;;;;;;;;;;;;5061526;28;1971;-72
2022/08/03 00:52:36;;;;;;;;;;;;;;;;;;5046516;28;1496;-72
2022/08/03 00:55:02;;;;;;;;;;;;;;;;;;5043638;28;1605;-73
2022/08/03 00:57:28;;;;;;;;;;;;;;;;;;5050378;28;1794;-72
2022/08/03 00:59:54;;;;;;;;;;;;;;;;;;5058168;28;1122;-73
2022/08/03 01:02:19;;;;;;;;;;;;;;;;;;5051839;28;1534;-73
2022/08/03 01:04:44;;;;;;;;;;;;;;;;;;5058581;28;1534;-73
2022/08/03 01:07:16;;;;;;;;;;;;;;;;;;5035037;28;1472;-74
2022/08/03 01:09:44;;;;;;;;;;;;;;;;;;5061879;28;1960;-72
2022/08/03 01:12:24;;;;;;;;;;;;;;;;;;5046637;28;1856;-71
2022/08/03 01:14:49;;;;;;;;;;;;;;;;;;5059202;28;1196;-71
2022/08/03 01:17:20;;;;;;;;;;;;;;;;;;5052727;28;1904;-71
2022/08/03 01:19:51;;;;;;;;;;;;;;;;;;5044942;28;1131;-72
2022/08/03 01:22:35;;;;;;;;;;;;;;;;;;5043411;28;1270;-71
2022/08/03 01:25:03;;;;;;;;;;;;;;;;;;5060945;28;914;-72
2022/08/03 01:27:33;;;;;;;;;;;;;;;;;;5034664;28;1869;-73
2022/08/03 01:30:01;;;;;;;;;;;;;;;;;;5059134;28;1906;-73
2022/08/03 01:32:35;;;;;;;;;;;;;;;;;;5052073;28;2058;-72
2022/08/03 01:35:24;;;;;;;;;;;;;;;;;;5044904;28;1523;-73
2022/08/03 01:37:51;;;;;;;;;;;;;;;;;;5057188;28;1490;-73
2022/08/03 01:40:18;;;;;;;;;;;;;;;;;;5040841;28;1574;-73
2022/08/03 01:42:44;;;;;;;;;;;;;;;;;;5050241;28;1476;-73
2022/08/03 01:45:10;;;;;;;;;;;;;;;;;;5058608;28;1472;-71
2022/08/03 01:47:36;;;;;;;;;;;;;;;;;;5054745;28;1414;-72
2022/08/03 01:50:02;;;;;;;;;;;;;;;;;;5059689;28;1967;-72
2022/08/03 01:52:28;;;;;;;;;;;;;;;;;;5054570;28;1444;-71
2022/08/03 01:54:54;;;;;;;;;;;;;;;;;;5041470;28;1463;-72
2022/08/03 01:57:20;;;;;;;;;;;;;;;;;;5051624;28;1641;-74
2022/08/03 01:59:47;;;;;;;;;;;;;;;;;;5058507;28;1412;-73
2022/08/03 02:02:13;;;;;;;;;;;;;;;;;;5047297;28;1952;-73
2022/08/03 02:04:39;;;;;;;;;;;;;;;;;;5055363;28;1172;-73
2022/08/03 02:07:05;;;;;;;;;;;;;;;;;;5041418;28;1467;-73
2022/08/03 02:09:31;;;;;;;;;;;;;;;;;;5054544;28;1955;-73
2022/08/03 02:11:57;;;;;;;;;;;;;;;;;;5055157;28;1563;-73
2022/08/03 02:14:22;;;;;;;;;;;;;;;;;;5054517;28;1498;-72
2022/08/03 02:16:49;;;;;;;;;;;;;;;;;;5054143;28;1944;-72
2022/08/03 02:19:14;;;;;;;;;;;;;;;;;;5053451;28;1218;-72
2022/08/03 02:21:40;;;;;;;;;;;;;;;;;;5055480;28;1431;-72
2022/08/03 02:24:05;;;;;;;;;;;;;;;;;;5060545;28;1080;-72
2022/08/03 02:26:31;;;;;;;;;;;;;;;;;;5044547;28;1550;-72
2022/08/03 02:29:01;;;;;;;;;;;;;;;;;;5050493;28;1981;-72
2022/08/03 02:31:28;;;;;;;;;;;;;;;;;;5040941;28;1453;-74
2022/08/03 02:33:56;;;;;;;;;;;;;;;;;;5059764;28;1245;-74
2022/08/03 02:36:25;;;;;;;;;;;;;;;;;;5054160;28;1384;-74
2022/08/03 02:38:52;;;;;;;;;;;;;;;;;;5043545;28;803;-74
2022/08/03 02:41:24;;;;;;;;;;;;;;;;;;5057219;28;1575;-74
2022/08/03 02:43:52;;;;;;;;;;;;;;;;;;5053615;28;1254;-74
2022/08/03 02:46:19;;;;;;;;;;;;;;;;;;5055133;28;1857;-74
2022/08/03 02:48:45;;;;;;;;;;;;;;;;;;5060227;28;1909;-74
2022/08/03 02:51:10;;;;;;;;;;;;;;;;;;5063031;28;1204;-75
2022/08/03 02:53:35;;;;;;;;;;;;;;;;;;5058207;28;1797;-73
2022/08/03 02:56:01;;;;;;;;;;;;;;;;;;5060977;28;1532;-73
2022/08/03 02:58:27;;;;;;;;;;;;;;;;;;5056455;28;1180;-72
2022/08/03 03:00:53;;;;;;;;;;;;;;;;;;5049412;28;1563;-72
2022/08/03 03:03:19;;;;;;;;;;;;;;;;;;5061943;28;1044;-72
2022/08/03 03:05:45;;;;;;;;;;;;;;;;;;5062586;28;858;-71
2022/08/03 03:08:15;;;;;;;;;;;;;;;;;;5061141;28;1404;-71
2022/08/03 03:10:40;;;;;;;;;;;;;;;;;;5063473;28;2014;-72
2022/08/03 03:13:06;;;;;;;;;;;;;;;;;;5055447;28;1950;-72
2022/08/03 03:15:34;;;;;;;;;;;;;;;;;;5059531;28;1498;-72
2022/08/03 03:18:00;;;;;;;;;;;;;;;;;;5061760;28;1362;-72
2022/08/03 03:20:25;;;;;;;;;;;;;;;;;;5060498;28;2017;-72
2022/08/03 03:22:51;;;;;;;;;;;;;;;;;;5062824;28;1291;-72
2022/08/03 03:25:16;;;;;;;;;;;;;;;;;;5063407;28;1013;-73
2022/08/03 03:27:42;;;;;;;;;;;;;;;;;;5055505;28;1678;-73
2022/08/03 03:30:07;;;;;;;;;;;;;;;;;;5061882;28;1902;-72
2022/08/03 03:32:32;;;;;;;;;;;;;;;;;;5050700;28;1526;-71
2022/08/03 03:34:58;;;;;;;;;;;;;;;;;;5045281;28;1181;-71
2022/08/03 03:37:23;;;;;;;;;;;;;;;;;;5046083;28;1492;-70
2022/08/03 03:39:49;;;;;;;;;;;;;;;;;;5044362;28;1368;-70
2022/08/03 03:42:15;;;;;;;;;;;;;;;;;;5052986;28;1583;-70
2022/08/03 03:44:40;;;;;;;;;;;;;;;;;;5040915;28;1571;-70
2022/08/03 03:47:06;;;;;;;;;;;;;;;;;;5056899;28;1561;-70
2022/08/03 03:49:31;;;;;;;;;;;;;;;;;;5063220;28;1922;-70
2022/08/03 03:51:56;;;;;;;;;;;;;;;;;;5061411;28;1942;-70
2022/08/03 03:54:21;;;;;;;;;;;;;;;;;;5062875;28;1202;-70
2022/08/03 03:56:47;;;;;;;;;;;;;;;;;;5060796;28;1777;-70
2022/08/03 03:59:12;;;;;;;;;;;;;;;;;;5056443;28;1320;-70
2022/08/03 04:01:38;;;;;;;;;;;;;;;;;;5059406;28;1725;-70
2022/08/03 04:10:57;;;;;;;;;;;;;;;;;;5057322;28;1247;-70
2022/08/03 04:12:18;;;;;;;;;;;;;;;;;;5059960;28;1607;-70
2022/08/03 04:14:45;;;;;;;;;;;;;;;;;;5059669;28;1720;-74
2022/08/03 04:17:11;;;;;;;;;;;;;;;;;;5038568;28;1512;-74
2022/08/03 04:19:38;;;;;;;;;;;;;;;;;;5062190;28;1147;-73
2022/08/03 04:22:09;;;;;;;;;;;;;;;;;;5058717;28;1433;-73
2022/08/03 04:24:40;;;;;;;;;;;;;;;;;;5041910;28;1384;-73
2022/08/03 04:27:07;;;;;;;;;;;;;;;;;;5042649;28;1821;-73
2022/08/03 04:29:33;;;;;;;;;;;;;;;;;;5061367;28;1926;-73
2022/08/03 04:31:59;;;;;;;;;;;;;;;;;;5055156;28;1852;-73
2022/08/03 04:34:24;;;;;;;;;;;;;;;;;;5062509;28;1119;-72
2022/08/03 04:36:51;;;;;;;;;;;;;;;;;;5061241;28;1239;-73
2022/08/03 04:39:22;;;;;;;;;;;;;;;;;;5062534;28;820;-73
2022/08/03 04:41:47;;;;;;;;;;;;;;;;;;5056001;28;1559;-73
2022/08/03 04:44:13;;;;;;;;;;;;;;;;;;5060309;28;1187;-71
2022/08/03 04:46:38;;;;;;;;;;;;;;;;;;5053624;28;1812;-71
2022/08/03 04:49:04;;;;;;;;;;;;;;;;;;5045892;28;1898;-72
2022/08/03 04:51:30;;;;;;;;;;;;;;;;;;5051280;28;1420;-72
2022/08/03 04:53:55;;;;;;;;;;;;;;;;;;5041368;28;961;-72
2022/08/03 04:56:20;;;;;;;;;;;;;;;;;;5049847;28;1555;-72
2022/08/03 04:58:45;;;;;;;;;;;;;;;;;;5058355;28;1344;-73
2022/08/03 05:01:11;;;;;;;;;;;;;;;;;;5047992;28;1666;-73
2022/08/03 05:03:36;;;;;;;;;;;;;;;;;;5060480;28;1254;-73
2022/08/03 05:06:01;;;;;;;;;;;;;;;;;;5061158;28;1316;-73
2022/08/03 05:08:27;;;;;;;;;;;;;;;;;;5060919;28;1192;-73
2022/08/03 05:10:52;;;;;;;;;;;;;;;;;;5060095;28;1947;-72
2022/08/03 05:13:17;;;;;;;;;;;;;;;;;;5061406;28;1017;-73
2022/08/03 05:15:42;;;;;;;;;;;;;;;;;;5048588;28;1912;-73
2022/08/03 05:18:07;;;;;;;;;;;;;;;;;;5056309;28;1307;-73
2022/08/03 05:20:33;;;;;;;;;;;;;;;;;;5059912;28;889;-73
2022/08/03 05:23:00;;;;;;;;;;;;;;;;;;5060049;28;885;-73
2022/08/03 05:25:25;;;;;;;;;;;;;;;;;;5058575;28;1831;-72
2022/08/03 05:27:50;;;;;;;;;;;;;;;;;;5060481;28;1248;-73
2022/08/03 05:30:16;;;;;;;;;;;;;;;;;;5059226;28;1886;-73
2022/08/03 05:32:41;;;;;;;;;;;;;;;;;;5056817;28;1140;-70
2022/08/03 05:35:06;;;;;;;;;;;;;;;;;;5054301;28;1266;-69
2022/08/03 05:37:31;;;;;;;;;;;;;;;;;;5038850;28;1228;-70
2022/08/03 05:39:56;;;;;;;;;;;;;;;;;;5039951;28;1885;-70
2022/08/03 05:42:22;;;;;;;;;;;;;;;;;;5060344;28;1752;-69
2022/08/03 05:44:47;;;;;;;;;;;;;;;;;;5051102;28;1139;-73
2022/08/03 05:47:12;;;;;;;;;;;;;;;;;;5051594;28;1816;-71
2022/08/03 05:49:37;;;;;;;;;;;;;;;;;;5034433;28;1898;-71
2022/08/03 05:52:03;;;;;;;;;;;;;;;;;;5048789;28;1498;-73
2022/08/03 05:54:28;;;;;;;;;;;;;;;;;;5056966;28;1518;-72
2022/08/03 05:56:53;;;;;;;;;;;;;;;;;;5051065;28;1562;-73
2022/08/03 05:59:18;;;;;;;;;;;;;;;;;;5055758;28;1278;-72
2022/08/03 06:01:43;;;;;;;;;;;;;;;;;;5040854;28;1514;-73
2022/08/03 06:04:09;;;;;;;;;;;;;;;;;;5067269;28;1189;-73
2022/08/03 06:06:34;;;;;;;;;;;;;;;;;;5065397;28;1668;-73
2022/08/03 06:08:59;;;;;;;;;;;;;;;;;;5070363;28;1890;-73
2022/08/03 06:11:24;;;;;;;;;;;;;;;;;;5064785;28;1501;-72
2022/08/03 06:13:49;;;;;;;;;;;;;;;;;;5067181;28;1163;-73
2022/08/03 06:16:15;;;;;;;;;;;;;;;;;;5067501;28;1472;-73
2022/08/03 06:18:40;;;;;;;;;;;;;;;;;;5064525;28;1338;-73
2022/08/03 06:21:05;;;;;;;;;;;;;;;;;;5068526;28;1329;-73
2022/08/03 06:23:30;;;;;;;;;;;;;;;;;;5070232;28;1309;-73
2022/08/03 06:25:55;;;;;;;;;;;;;;;;;;5067713;28;1266;-74
2022/08/03 06:28:21;;;;;;;;;;;;;;;;;;5070031;28;1353;-73
2022/08/03 06:30:46;;;;;;;;;;;;;;;;;;5068856;28;1894;-74
2022/08/03 06:33:11;;;;;;;;;;;;;;;;;;5070731;28;1342;-74
2022/08/03 06:35:36;;;;;;;;;;;;;;;;;;5076537;28;1268;-74
2022/08/03 06:38:02;;;;;;;;;;;;;;;;;;5057990;28;1659;-74
2022/08/03 06:40:28;;;;;;;;;;;;;;;;;;5056771;28;1445;-73
2022/08/03 06:42:57;;;;;;;;;;;;;;;;;;5065458;28;1303;-74
2022/08/03 06:45:22;;;;;;;;;;;;;;;;;;5061910;28;1296;-74
2022/08/03 06:47:58;;;;;;;;;;;;;;;;;;5067759;28;1271;-74
2022/08/03 06:50:23;;;;;;;;;;;;;;;;;;5052025;28;2300;-74
2022/08/03 06:52:48;;;;;;;;;;;;;;;;;;5069023;28;1470;-74
2022/08/03 06:55:14;;;;;;;;;;;;;;;;;;5052671;28;1223;-74
2022/08/03 06:57:39;;;;;;;;;;;;;;;;;;5063007;28;1431;-74
2022/08/03 07:00:05;;;;;;;;;;;;;;;;;;5064493;28;1522;-74
2022/08/03 07:02:30;;;;;;;;;;;;;;;;;;5072579;28;1250;-74
2022/08/03 07:04:55;;;;;;;;;;;;;;;;;;5063480;28;1120;-74
2022/08/03 07:07:20;;;;;;;;;;;;;;;;;;5038088;28;1690;-74
2022/08/03 07:09:47;;;;;;;;;;;;;;;;;;5054305;28;1968;-74
2022/08/03 07:12:12;;;;;;;;;;;;;;;;;;5057916;28;1483;-74
2022/08/03 07:14:37;;;;;;;;;;;;;;;;;;5058393;28;984;-75
2022/08/03 07:17:02;;;;;;;;;;;;;;;;;;5059528;28;1271;-73
2022/08/03 07:19:27;;;;;;;;;;;;;;;;;;5062856;28;802;-73
2022/08/03 07:21:53;;;;;;;;;;;;;;;;;;5061976;28;1380;-73
2022/08/03 07:24:18;;;;;;;;;;;;;;;;;;5063514;28;862;-72
2022/08/03 07:26:43;;;;;;;;;;;;;;;;;;5061855;28;1555;-73
2022/08/03 07:29:08;;;;;;;;;;;;;;;;;;5063234;28;1898;-72
2022/08/03 07:31:33;;;;;;;;;;;;;;;;;;5059241;28;869;-72
2022/08/03 07:33:59;;;;;;;;;;;;;;;;;;5043522;28;1450;-73
2022/08/03 07:36:24;;;;;;;;;;;;;;;;;;5054352;28;1594;-73
2022/08/03 07:38:49;;;;;;;;;;;;;;;;;;5062078;28;1017;-73
2022/08/03 07:41:15;;;;;;;;;;;;;;;;;;5047311;28;1436;-72
2022/08/03 07:43:40;;;;;;;;;;;;;;;;;;5043074;28;1045;-73
2022/08/03 07:46:05;;;;;;;;;;;;;;;;;;5049361;28;1405;-73
2022/08/03 07:48:30;;;;;;;;;;;;;;;;;;5040011;28;1546;-73
2022/08/03 07:50:55;;;;;;;;;;;;;;;;;;5043664;28;1969;-72
2022/08/03 07:53:21;;;;;;;;;;;;;;;;;;5062847;28;890;-72
2022/08/03 07:55:46;;;;;;;;;;;;;;;;;;5063031;28;858;-72
2022/08/03 07:58:14;;;;;;;;;;;;;;;;;;5039721;28;1534;-72
2022/08/03 08:00:40;;;;;;;;;;;;;;;;;;5060660;28;1715;-72
2022/08/03 08:03:05;;;;;;;;;;;;;;;;;;5059022;28;1328;-73
2022/08/03 08:05:30;;;;;;;;;;;;;;;;;;5055711;28;1409;-72
2022/08/03 08:07:56;;;;;;;;;;;;;;;;;;5055186;28;1672;-72
2022/08/03 08:10:21;;;;;;;;;;;;;;;;;;5061919;28;1898;-70
2022/08/03 08:12:47;;;;;;;;;;;;;;;;;;5062457;28;839;-72
2022/08/03 08:15:12;;;;;;;;;;;;;;;;;;5062099;28;1765;-72
2022/08/03 08:17:44;;;;;;;;;;;;;;;;;;5061790;28;1184;-70
2022/08/03 08:20:10;;;;;;;;;;;;;;;;;;5049810;28;1507;-70
2022/08/03 08:22:35;;;;;;;;;;;;;;;;;;5058918;28;1551;-70
2022/08/03 08:25:00;;;;;;;;;;;;;;;;;;5062616;28;871;-70
2022/08/03 08:27:26;;;;;;;;;;;;;;;;;;5058259;28;1275;-71
2022/08/03 08:29:51;;;;;;;;;;;;;;;;;;5082071;28;1952;-71
2022/08/03 08:32:16;;;;;;;;;;;;;;;;;;5082213;28;877;-74
2022/08/03 08:34:42;;;;;;;;;;;;;;;;;;5066366;28;1509;-73
2022/08/03 08:37:07;;;;;;;;;;;;;;;;;;5059419;28;1374;-74
2022/08/03 08:39:32;;;;;;;;;;;;;;;;;;5058328;28;997;-74
2022/08/03 08:41:57;;;;;;;;;;;;;;;;;;5049749;28;1495;-71
2022/08/03 08:44:22;;;;;;;;;;;;;;;;;;5055984;28;1539;-71
2022/08/03 08:46:49;;;;;;;;;;;;;;;;;;5055930;28;1519;-71
2022/08/03 08:49:17;;;;;;;;;;;;;;;;;;5059144;28;1890;-71
2022/08/03 08:51:42;;;;;;;;;;;;;;;;;;5042201;28;1488;-71
2022/08/03 08:54:09;;;;;;;;;;;;;;;;;;5062297;28;1029;-71
2022/08/03 08:56:34;;;;;;;;;;;;;;;;;;5055219;28;1429;-71
2022/08/03 08:59:00;;;;;;;;;;;;;;;;;;5059932;28;1260;-71
2022/08/03 09:01:25;;;;;;;;;;;;;;;;;;5061849;28;838;-70
2022/08/03 09:03:52;;;;;;;;;;;;;;;;;;5060761;28;1606;-70
2022/08/03 09:06:18;;;;;;;;;;;;;;;;;;5059648;28;1483;-71
2022/08/03 09:08:43;;;;;;;;;;;;;;;;;;5061592;28;787;-71
2022/08/03 09:11:08;;;;;;;;;;;;;;;;;;5055716;28;1897;-71
2022/08/03 09:13:34;;;;;;;;;;;;;;;;;;5062825;28;1635;-71
2022/08/03 09:16:09;;;;;;;;;;;;;;;;;;5061624;28;814;-71
2022/08/03 09:18:35;;;;;;;;;;;;;;;;;;5060948;28;1283;-71
2022/08/03 09:21:13;;;;;;;;;;;;;;;;;;5059935;28;1511;-72
2022/08/03 09:23:45;;;;;;;;;;;;;;;;;;5061446;28;889;-72
2022/08/03 09:26:10;;;;;;;;;;;;;;;;;;5061299;28;857;-73
2022/08/03 09:28:36;;;;;;;;;;;;;;;;;;5054564;28;1443;-73
2022/08/03 09:31:01;;;;;;;;;;;;;;;;;;5053581;28;1971;-72
2022/08/03 09:33:26;;;;;;;;;;;;;;;;;;5054915;28;1494;-74
2022/08/03 09:35:55;;;;;;;;;;;;;;;;;;5045312;28;1558;-74
2022/08/03 09:38:23;;;;;;;;;;;;;;;;;;5045009;28;1428;-74
2022/08/03 09:40:48;;;;;;;;;;;;;;;;;;5059694;28;1572;-74
2022/08/03 09:43:13;;;;;;;;;;;;;;;;;;5059097;28;1423;-73
2022/08/03 09:45:39;;;;;;;;;;;;;;;;;;5061352;28;854;-74
2022/08/03 09:48:22;;;;;;;;;;;;;;;;;;5059466;28;1303;-73
2022/08/03 09:50:49;;;;;;;;;;;;;;;;;;5059478;28;2024;-74
2022/08/03 09:53:14;;;;;;;;;;;;;;;;;;5061026;28;1012;-73
2022/08/03 09:55:48;;;;;;;;;;;;;;;;;;5061159;28;1044;-73
2022/08/03 09:58:14;;;;;;;;;;;;;;;;;;5058806;28;1528;-73
2022/08/03 10:00:52;;;;;;;;;;;;;;;;;;5055060;28;1509;-73
2022/08/03 10:03:17;;;;;;;;;;;;;;;;;;5039602;28;815;-74
2022/08/03 10:05:44;;;;;;;;;;;;;;;;;;5041682;28;1455;-74
2022/08/03 10:08:13;;;;;;;;;;;;;;;;;;5059562;28;1519;-73
2022/08/03 10:10:42;;;;;;;;;;;;;;;;;;5059597;28;1969;-71
2022/08/03 10:13:09;;;;;;;;;;;;;;;;;;5040657;28;831;-71
2022/08/03 10:15:34;;;;;;;;;;;;;;;;;;5040512;28;1087;-71
2022/08/03 10:17:59;;;;;;;;;;;;;;;;;;5040254;28;1268;-71
2022/08/03 10:20:25;;;;;;;;;;;;;;;;;;5040444;28;973;-71
2022/08/03 10:22:50;;;;;;;;;;;;;;;;;;5057209;28;1488;-74
2022/08/03 10:25:16;;;;;;;;;;;;;;;;;;5060415;28;1229;-75
2022/08/03 10:27:46;;;;;;;;;;;;;;;;;;5055476;28;1522;-75
2022/08/03 10:30:11;;;;;;;;;;;;;;;;;;5060507;28;1898;-74
2022/08/03 10:32:36;;;;;;;;;;;;;;;;;;5060316;28;1036;-74
2022/08/03 10:35:03;;;;;;;;;;;;;;;;;;5060570;28;870;-74
2022/08/03 10:37:30;;;;;;;;;;;;;;;;;;5044486;28;1511;-75
2022/08/03 10:39:57;;;;;;;;;;;;;;;;;;5041233;28;820;-73
2022/08/03 10:42:23;;;;;;;;;;;;;;;;;;5040727;28;812;-74
2022/08/03 10:44:51;;;;;;;;;;;;;;;;;;5040630;28;1417;-75
2022/08/03 10:47:17;;;;;;;;;;;;;;;;;;5051690;28;1259;-75
2022/08/03 10:49:42;;;;;;;;;;;;;;;;;;5059890;28;1953;-75
2022/08/03 10:52:08;;;;;;;;;;;;;;;;;;5058899;28;1455;-75
2022/08/03 10:57:33;;;;;;;;;;;;;;;;;;5063330;28;1005;-75
2022/08/03 10:57:45;;;;;;;;;;;;;;;;;;5046740;28;1448;-75
2022/08/03 11:00:11;;;;;;;;;;;;;;;;;;5061949;28;1447;-75
2022/08/03 11:02:55;;;;;;;;;;;;;;;;;;5063729;28;775;-75
2022/08/03 11:05:24;;;;;;;;;;;;;;;;;;5045448;28;843;-75
2022/08/03 11:07:49;;;;;;;;;;;;;;;;;;5061278;28;1476;-75
2022/08/03 11:10:31;;;;;;;;;;;;;;;;;;5063750;28;1893;-75
2022/08/03 11:13:06;;;;;;;;;;;;;;;;;;5062595;28;787;-75
2022/08/03 11:15:33;;;;;;;;;;;;;;;;;;5062002;28;1511;-74
2022/08/03 11:18:06;;;;;;;;;;;;;;;;;;5058714;28;1355;-74
2022/08/03 11:20:52;;;;;;;;;;;;;;;;;;5063251;28;1460;-75
2022/08/03 11:23:19;;;;;;;;;;;;;;;;;;5057094;28;1597;-75
2022/08/03 11:26:03;;;;;;;;;;;;;;;;;;5063248;28;1465;-78
2022/08/03 11:28:28;;;;;;;;;;;;;;;;;;5062453;28;1402;-79
2022/08/03 11:30:53;;;;;;;;;;;;;;;;;;5061812;28;1969;-77
2022/08/03 11:33:27;;;;;;;;;;;;;;;;;;5063209;28;933;-76
2022/08/03 11:36:00;;;;;;;;;;;;;;;;;;5043562;28;1460;-76
2022/08/03 11:38:25;;;;;;;;;;;;;;;;;;5062401;28;1184;-76
2022/08/03 11:40:51;;;;;;;;;;;;;;;;;;5061560;28;1527;-76
2022/08/03 11:43:26;;;;;;;;;;;;;;;;;;5058983;28;1628;-76
2022/08/03 11:46:02;;;;;;;;;;;;;;;;;;5066743;28;1333;-76
2022/08/03 11:48:32;;;;;;;;;;;;;;;;;;5048726;28;1556;-76
2022/08/03 11:50:58;;;;;;;;;;;;;;;;;;5066298;28;1893;-77
2022/08/03 11:53:23;;;;;;;;;;;;;;;;;;5042999;28;878;-77
2022/08/03 11:55:49;;;;;;;;;;;;;;;;;;5064588;28;1328;-76
2022/08/03 11:58:15;;;;;;;;;;;;;;;;;;5050812;28;1541;-77
2022/08/03 12:00:40;;;;;;;;;;;;;;;;;;5050287;28;1481;-76
2022/08/03 12:03:06;;;;;;;;;;;;;;;;;;5056275;28;1260;-75
2022/08/03 12:05:39;;;;;;;;;;;;;;;;;;5057216;28;1357;-74
2022/08/03 12:08:05;;;;;;;;;;;;;;;;;;5078740;28;1355;-76
2022/08/03 12:10:30;;;;;;;;;;;;;;;;;;5082974;28;1893;-76
2022/08/03 12:12:56;;;;;;;;;;;;;;;;;;5080109;28;1470;-76
2022/08/03 12:15:26;;;;;;;;;;;;;;;;;;5060556;28;1743;-76
2022/08/03 12:17:51;;;;;;;;;;;;;;;;;;5030497;28;1474;-76
2022/08/03 12:20:20;;;;;;;;;;;;;;;;;;5042983;28;899;-76
2022/08/03 12:22:45;;;;;;;;;;;;;;;;;;5046178;28;1476;-76
2022/08/03 12:25:19;;;;;;;;;;;;;;;;;;5042289;28;1424;-76
2022/08/03 12:27:44;;;;;;;;;;;;;;;;;;5055931;28;1437;-76
2022/08/03 12:30:10;;;;;;;;;;;;;;;;;;5055153;28;1894;-76
2022/08/03 12:32:35;;;;;;;;;;;;;;;;;;5042556;28;1453;-74
2022/08/03 12:35:03;;;;;;;;;;;;;;;;;;5045413;28;1546;-74
2022/08/03 12:37:28;;;;;;;;;;;;;;;;;;5036102;28;1469;-74
2022/08/03 12:39:55;;;;;;;;;;;;;;;;;;5059857;28;1176;-76
2022/08/03 12:42:20;;;;;;;;;;;;;;;;;;5062206;28;902;-75
2022/08/03 12:44:47;;;;;;;;;;;;;;;;;;5060860;28;1335;-74
2022/08/03 12:47:13;;;;;;;;;;;;;;;;;;5061380;28;1444;-76
2022/08/03 12:49:48;;;;;;;;;;;;;;;;;;5062415;28;1976;-76
2022/08/03 12:52:13;;;;;;;;;;;;;;;;;;5046397;28;1534;-76
2022/08/03 12:54:39;;;;;;;;;;;;;;;;;;5034614;28;1555;-76
2022/08/03 12:57:05;;;;;;;;;;;;;;;;;;5058433;28;1388;-75
2022/08/03 12:59:31;;;;;;;;;;;;;;;;;;5061889;28;865;-75
2022/08/03 13:01:57;;;;;;;;;;;;;;;;;;5056833;28;1564;-75
2022/08/03 13:04:29;;;;;;;;;;;;;;;;;;5061646;28;890;-75
2022/08/03 13:06:57;;;;;;;;;;;;;;;;;;5057667;28;1488;-75
2022/08/03 13:09:25;;;;;;;;;;;;;;;;;;5059757;28;1906;-74
2022/08/03 13:12:03;;;;;;;;;;;;;;;;;;5061230;28;834;-76
2022/08/03 13:14:28;;;;;;;;;;;;;;;;;;5061431;28;799;-75
2022/08/03 13:16:53;;;;;;;;;;;;;;;;;;5060805;28;1273;-76
2022/08/03 13:19:19;;;;;;;;;;;;;;;;;;5061569;28;799;-76
2022/08/03 13:21:44;;;;;;;;;;;;;;;;;;5043339;28;1507;-75
2022/08/03 13:24:10;;;;;;;;;;;;;;;;;;5041700;28;810;-75
2022/08/03 13:26:35;;;;;;;;;;;;;;;;;;5026434;28;1508;-76
2022/08/03 13:29:00;;;;;;;;;;;;;;;;;;5049113;28;1953;-74
2022/08/03 13:31:25;;;;;;;;;;;;;;;;;;5048087;28;1361;-73
2022/08/03 13:33:50;;;;;;;;;;;;;;;;;;5041483;28;1476;-73
2022/08/03 13:36:16;;;;;;;;;;;;;;;;;;5049473;28;1508;-73
2022/08/03 13:38:41;;;;;;;;;;;;;;;;;;5051371;28;1268;-73
2022/08/03 13:41:06;;;;;;;;;;;;;;;;;;5043097;28;1483;-73
2022/08/03 13:43:32;;;;;;;;;;;;;;;;;;5060716;28;1085;-73
2022/08/03 13:45:57;;;;;;;;;;;;;;;;;;5051065;28;1429;-73
2022/08/03 13:48:22;;;;;;;;;;;;;;;;;;5045646;28;1468;-73
2022/08/03 13:50:47;;;;;;;;;;;;;;;;;;5056905;28;1963;-73
2022/08/03 13:53:12;;;;;;;;;;;;;;;;;;5040525;28;1511;-73
2022/08/03 13:55:38;;;;;;;;;;;;;;;;;;5041235;28;1496;-72
2022/08/03 13:58:03;;;;;;;;;;;;;;;;;;5022270;28;1554;-70
2022/08/03 14:00:28;;;;;;;;;;;;;;;;;;5051983;28;1539;-71
2022/08/03 14:02:54;;;;;;;;;;;;;;;;;;5051183;28;1794;-70
2022/08/03 14:05:19;;;;;;;;;;;;;;;;;;5047253;28;1503;-71
2022/08/03 14:07:44;;;;;;;;;;;;;;;;;;5034899;28;1538;-71
2022/08/03 14:10:09;;;;;;;;;;;;;;;;;;5042358;28;1955;-71
2022/08/03 14:12:35;;;;;;;;;;;;;;;;;;5042862;28;1496;-71
2022/08/03 14:15:00;;;;;;;;;;;;;;;;;;5039693;28;1523;-70
2022/08/03 14:17:25;;;;;;;;;;;;;;;;;;5050398;28;1244;-71
2022/08/03 14:19:50;;;;;;;;;;;;;;;;;;5044835;28;1503;-71
2022/08/03 14:22:15;;;;;;;;;;;;;;;;;;5054038;28;1588;-71
2022/08/03 14:24:41;;;;;;;;;;;;;;;;;;5058995;28;1467;-71
2022/08/03 14:27:06;;;;;;;;;;;;;;;;;;5060707;28;1435;-71
2022/08/03 14:29:31;;;;;;;;;;;;;;;;;;5067886;28;1976;-70
2022/08/03 14:31:56;;;;;;;;;;;;;;;;;;5061963;28;1522;-70
2022/08/03 14:34:21;;;;;;;;;;;;;;;;;;5052926;28;1625;-70
2022/08/03 14:36:47;;;;;;;;;;;;;;;;;;5062379;28;1255;-70
2022/08/03 14:39:13;;;;;;;;;;;;;;;;;;5063817;28;1687;-70
2022/08/03 14:41:38;;;;;;;;;;;;;;;;;;5062142;28;1303;-70
2022/08/03 14:44:03;;;;;;;;;;;;;;;;;;5051630;28;1425;-71
2022/08/03 14:46:29;;;;;;;;;;;;;;;;;;5055379;28;1650;-72
2022/08/03 14:48:54;;;;;;;;;;;;;;;;;;5053752;28;1635;-72
2022/08/03 14:51:19;;;;;;;;;;;;;;;;;;5061428;28;1894;-73
2022/08/03 14:53:45;;;;;;;;;;;;;;;;;;5072255;28;1402;-73
2022/08/03 14:56:10;;;;;;;;;;;;;;;;;;5069811;28;1866;-73
2022/08/03 14:58:35;;;;;;;;;;;;;;;;;;5074696;28;1231;-74
2022/08/03 15:01:01;;;;;;;;;;;;;;;;;;5064667;28;1320;-73
2022/08/03 15:03:26;;;;;;;;;;;;;;;;;;5070932;28;1295;-73
2022/08/03 15:05:52;;;;;;;;;;;;;;;;;;5068920;28;1315;-73
2022/08/03 15:08:17;;;;;;;;;;;;;;;;;;5048672;28;1930;-73
2022/08/03 15:10:42;;;;;;;;;;;;;;;;;;5064154;28;1902;-73
2022/08/03 15:13:08;;;;;;;;;;;;;;;;;;5076099;28;1239;-73
2022/08/03 15:15:33;;;;;;;;;;;;;;;;;;5070608;28;1301;-73
2022/08/03 15:17:58;;;;;;;;;;;;;;;;;;5070135;28;1271;-74
2022/08/03 15:20:23;;;;;;;;;;;;;;;;;;5074397;28;1276;-73
2022/08/03 15:22:48;;;;;;;;;;;;;;;;;;5062860;28;1465;-73
2022/08/03 15:25:13;;;;;;;;;;;;;;;;;;5062934;28;1243;-74
2022/08/03 15:27:39;;;;;;;;;;;;;;;;;;5074494;28;1255;-73
2022/08/03 15:30:05;;;;;;;;;;;;;;;;;;5070277;28;1902;-73
2022/08/03 15:32:31;;;;;;;;;;;;;;;;;;5051583;28;1226;-73
2022/08/03 15:34:56;;;;;;;;;;;;;;;;;;5071658;28;1270;-73
2022/08/03 15:37:24;;;;;;;;;;;;;;;;;;5065880;28;1318;-74
2022/08/03 15:39:49;;;;;;;;;;;;;;;;;;5049975;28;1454;-73
2022/08/03 15:42:14;;;;;;;;;;;;;;;;;;5075325;28;1309;-73
2022/08/03 15:44:39;;;;;;;;;;;;;;;;;;5063146;28;1458;-74
2022/08/03 15:47:04;;;;;;;;;;;;;;;;;;5064638;28;1482;-73
2022/08/03 15:49:30;;;;;;;;;;;;;;;;;;5060055;28;1902;-71
2022/08/03 15:51:55;;;;;;;;;;;;;;;;;;5066914;28;1629;-71
2022/08/03 15:54:20;;;;;;;;;;;;;;;;;;5063962;28;1309;-71
2022/08/03 15:56:45;;;;;;;;;;;;;;;;;;5065108;28;1327;-70
2022/08/03 15:59:13;;;;;;;;;;;;;;;;;;5064407;28;1331;-71
2022/08/03 16:01:39;;;;;;;;;;;;;;;;;;5062686;28;1611;-70
2022/08/03 16:04:04;;;;;;;;;;;;;;;;;;5054374;28;1438;-71
2022/08/03 16:06:29;;;;;;;;;;;;;;;;;;5073023;28;1267;-70
2022/08/03 16:08:54;;;;;;;;;;;;;;;;;;5058355;28;1327;-71
2022/08/03 16:11:20;;;;;;;;;;;;;;;;;;5069262;28;1914;-70
2022/08/03 16:13:45;;;;;;;;;;;;;;;;;;5069370;28;1326;-72
2022/08/03 16:16:10;;;;;;;;;;;;;;;;;;5072124;28;1294;-71
2022/08/03 16:18:37;;;;;;;;;;;;;;;;;;5067748;28;1260;-72
2022/08/03 16:21:03;;;;;;;;;;;;;;;;;;5073137;28;1263;-70
2022/08/03 16:23:28;;;;;;;;;;;;;;;;;;5056573;28;1262;-71
2022/08/03 16:25:53;;;;;;;;;;;;;;;;;;5072962;28;1313;-71
2022/08/03 16:28:18;;;;;;;;;;;;;;;;;;5067432;28;1277;-71
2022/08/03 16:30:44;;;;;;;;;;;;;;;;;;5048961;28;1958;-70
2022/08/03 16:33:10;;;;;;;;;;;;;;;;;;5068946;28;1279;-71
2022/08/03 16:35:35;;;;;;;;;;;;;;;;;;5058138;28;1584;-71
2022/08/03 16:38:01;;;;;;;;;;;;;;;;;;5065738;28;1448;-71
2022/08/03 16:40:26;;;;;;;;;;;;;;;;;;5066120;28;1041;-69
2022/08/03 16:42:51;;;;;;;;;;;;;;;;;;5061687;28;1219;-69
2022/08/03 16:45:17;;;;;;;;;;;;;;;;;;5054869;28;1663;-69
2022/08/03 16:47:42;;;;;;;;;;;;;;;;;;5063668;28;1306;-69
2022/08/03 16:50:08;;;;;;;;;;;;;;;;;;5063710;28;1949;-70
2022/08/03 16:52:33;;;;;;;;;;;;;;;;;;5060290;28;1226;-70
2022/08/03 16:54:58;;;;;;;;;;;;;;;;;;5059836;28;1119;-69
2022/08/03 16:57:24;;;;;;;;;;;;;;;;;;5036662;28;1645;-70
2022/08/03 16:59:49;;;;;;;;;;;;;;;;;;5063558;28;1339;-69
2022/08/03 17:02:19;;;;;;;;;;;;;;;;;;5043933;28;1370;-69
2022/08/03 17:04:45;;;;;;;;;;;;;;;;;;5057870;28;1368;-69
2022/08/03 17:07:10;;;;;;;;;;;;;;;;;;5055136;28;1387;-69